Akron, OH (44301)

5:57 PM EDT on September 30, 2014 (GMT -0400)
Skycasters | Change Station
CLOSE
Current Station
Personal Weather Station
Location: Akron, OH
Elevation: 1135 ft
Nearby Weather Stations

Elev 1135 ft 41.03 °N, 81.49 °W | Updated 2 seconds ago

Overcast
Overcast
62.8 °F
Feels Like 62.8 °F
N
0.0
Wind Variable Wind from North
Gusts 0.0 mph

Today
High -- | Low -- °F
--% Chance of Precip.
Yesterday
High -- | Low -- °F
Precip. -- in
7:21 AM 7:09 PM
Waxing Crescent, 40% visible
Pressure 29.92 in
Visibility 10.0 miles
Clouds Overcast 1800 ft
Dew Point 56 °F
Humidity 79%
Rainfall 0.26 in
Snow Depth Not available.
UV 1 out of 12
Pollen 1.80 out of 12
Ozone Good
PM2.5 Good
Flu Activity Not available.
METAR KAKR 302054Z AUTO 34007KT 10SM OVC018 17/13 A2992 RMK AO2 SLP131 T01670128 51002

More Conditions Fewer Conditions

Pressure 29.92 in
Visibility 10.0 miles
Clouds Overcast 1800 ft
Dew Point 56 °F
Humidity 79%
Rainfall 0.26 in
Snow Depth Not available.
UV 1 out of 12
Pollen 1.80 out of 12
Ozone Good
PM2.5 Good
Flu Activity Not available.
METAR KAKR 302054Z AUTO 34007KT 10SM OVC018 17/13 A2992 RMK AO2 SLP131 T01670128 51002

More Conditions Fewer Conditions

10-Day Weather Forecast

Almanac

Astronomy

Sep. 30, 2014 Rise Set
Actual Time 7:21 AM EDT 7:09 PM EDT
Civil Twilight 6:54 AM EDT 7:37 PM EDT
Nautical Twilight 6:22 AM EDT 8:08 PM EDT
Astronomical Twilight 5:50 AM EDT 8:41 PM EDT
Moon 1:30 PM EDT 11:36 PM EDT
Length of Visible Light 12h 42m
Length of Day
11h 48m
Tomorrow will be 2m 41s shorter.
Waxing Crescent, 40% of the Moon is Illuminated
Today
Waxing Crescent
Oct 1
First Quarter
Oct 8
Full
Oct 15
Last Quarter
Oct 23
New

Today's Extremes

State Highs State Lows

Community

WunderPhotos

Upload Photos

1,757,755 photos uploaded!

Nearby

Air Quality

  Air Quality AQ Index Pollutant
Yesterday Moderate
PM2.5
Yesterday Good
OZONE
Current Good
OZONE
Current Good
PM2.5
Tuesday Moderate
PM2.5
Tuesday Good
OZONE
Wednesday Moderate
PM2.5
Wednesday Good
OZONE
Thursday Moderate
PM2.5
Thursday Good
OZONE

Snow Depth

Station Depth Elevation
No new snow has been reported.

Earthquake Activity

City Distance Mag. Time & Date
No recent earthquake activity has been reported nearby.
Minimum magnitude displayed is 2.5.

Coastal Water Temperatures

Place Temperature
No Stations Reporting

Nearby Weather Stations